Time;durP1;ratioP1;P1;durP2;ratioP2;P2;SDS_P1;SDS_P2;PMS_P1;PMS_P2;Temp;Humidity;BMP_temperature;BMP_pressure;BME280_temperature;BME280_humidity;BME280_pressure;Samples;Min_cycle;Max_cycle;Signal;HPM_P1;HPM_P2
2023/07/20 00:00:30;;;;;;;3.97;1.80;;;;;;;16.86;72.39;100496.22;7399662;19;20523;-67
2023/07/20 00:03:16;;;;;;;4.32;2.28;;;;;;;16.84;73.10;100498.09;7397499;19;20070;-67
2023/07/20 00:05:47;;;;;;;2.30;2.10;;;;;;;16.83;72.38;100496.38;7399537;19;20014;-68
2023/07/20 00:08:16;;;;;;;2.42;2.10;;;;;;;16.81;72.46;100488.50;7400218;19;20022;-67
2023/07/20 00:10:44;;;;;;;2.65;2.10;;;;;;;16.78;72.51;100494.81;7399684;19;20037;-67
2023/07/20 00:13:15;;;;;;;2.45;2.20;;;;;;;16.77;72.73;100495.75;7397104;19;20010;-67
2023/07/20 00:15:44;;;;;;;2.17;1.88;;;;;;;16.73;72.85;100491.56;7396829;19;20520;-67
2023/07/20 00:18:21;;;;;;;2.10;1.90;;;;;;;16.72;73.02;100487.19;7395008;19;20078;-67
2023/07/20 00:20:52;;;;;;;3.50;1.85;;;;;;;16.71;72.87;100488.13;7398810;19;20037;-67
2023/07/20 00:23:22;;;;;;;3.22;1.80;;;;;;;16.70;72.96;100494.34;7396989;19;20019;-67
2023/07/20 00:25:50;;;;;;;4.22;2.08;;;;;;;16.70;73.02;100489.03;7396571;19;20011;-67
2023/07/20 00:28:19;;;;;;;2.40;1.75;;;;;;;16.70;72.91;100481.09;7399098;19;20029;-67
2023/07/20 00:30:47;;;;;;;3.15;1.98;;;;;;;16.71;72.70;100484.63;7399129;19;20014;-67
2023/07/20 00:33:19;;;;;;;2.05;1.55;;;;;;;16.70;72.84;100482.91;7397213;19;20074;-67
2023/07/20 00:35:48;;;;;;;2.60;1.83;;;;;;;16.68;72.83;100484.75;7398592;19;20014;-67
2023/07/20 00:38:19;;;;;;;2.08;1.70;;;;;;;16.65;73.07;100491.06;7396862;19;20018;-67
2023/07/20 00:40:48;;;;;;;2.75;1.70;;;;;;;16.63;73.22;100492.09;7398896;19;20018;-67
2023/07/20 00:43:16;;;;;;;2.78;1.98;;;;;;;16.59;73.08;100491.38;7396476;19;20015;-66
2023/07/20 00:45:46;;;;;;;4.35;1.88;;;;;;;16.57;73.21;100498.56;7398585;19;20017;-66
2023/07/20 00:48:15;;;;;;;8.52;2.08;;;;;;;16.55;73.46;100500.44;7398452;19;20011;-70
2023/07/20 00:50:44;;;;;;;2.25;1.73;;;;;;;16.54;73.44;100502.25;7398018;19;20499;-67
2023/07/20 00:53:12;;;;;;;2.22;1.90;;;;;;;16.51;73.46;100499.72;7396738;19;20085;-67
2023/07/20 00:55:44;;;;;;;2.10;1.90;;;;;;;16.48;74.03;100497.25;7398261;19;20017;-67
2023/07/20 00:58:12;;;;;;;3.22;1.88;;;;;;;16.46;73.48;100491.16;7396175;19;20014;-70
2023/07/20 01:00:41;;;;;;;2.63;2.42;;;;;;;16.44;73.84;100493.88;7397621;19;20010;-67
2023/07/20 01:03:09;;;;;;;2.70;2.17;;;;;;;16.42;74.01;100495.75;7396018;19;20018;-67
2023/07/20 01:05:44;;;;;;;1.77;1.65;;;;;;;16.41;74.26;100494.03;7396077;19;20194;-67
2023/07/20 01:08:20;;;;;;;2.75;1.80;;;;;;;16.39;74.08;100485.31;7398234;19;20097;-68
2023/07/20 01:10:59;;;;;;;4.32;1.90;;;;;;;16.39;74.18;100487.97;7398176;19;20070;-68
2023/07/20 01:13:28;;;;;;;2.08;1.83;;;;;;;16.38;74.06;100488.91;7396330;19;20015;-66
2023/07/20 01:16:00;;;;;;;3.33;1.80;;;;;;;16.38;74.09;100483.59;7397626;19;20361;-65
2023/07/20 01:18:29;;;;;;;2.83;1.83;;;;;;;16.38;74.41;100490.72;7395585;19;20033;-66
2023/07/20 01:21:06;;;;;;;3.50;2.00;;;;;;;16.38;74.61;100493.34;7396462;19;20087;-67
2023/07/20 01:24:09;;;;;;;2.25;1.67;;;;;;;16.37;74.55;100487.19;7395702;19;20032;-66
2023/07/20 01:27:03;;;;;;;4.25;1.85;;;;;;;16.36;74.58;100484.63;7395401;19;20014;-66
2023/07/20 01:29:46;;;;;;;2.88;1.63;;;;;;;16.37;74.38;100497.78;7396845;19;20047;-66
2023/07/20 01:32:19;;;;;;;2.17;1.60;;;;;;;16.36;74.72;100496.06;7395943;19;20078;-66
2023/07/20 01:34:50;;;;;;;3.00;1.90;;;;;;;16.35;74.32;100498.78;7397493;19;20078;-66
2023/07/20 01:37:20;;;;;;;2.42;1.90;;;;;;;16.35;74.37;100494.38;7395941;19;20369;-66
2023/07/20 01:39:48;;;;;;;2.72;1.80;;;;;;;16.34;74.60;100491.75;7396396;19;20503;-65
2023/07/20 01:42:17;;;;;;;3.08;2.10;;;;;;;16.34;74.55;100489.13;7394966;19;20022;-66
2023/07/20 01:44:45;;;;;;;2.20;2.00;;;;;;;16.33;74.53;100480.34;7396227;19;20082;-66
2023/07/20 01:47:16;;;;;;;3.08;1.77;;;;;;;16.33;74.47;100488.28;7396582;19;20022;-66
2023/07/20 01:49:45;;;;;;;2.83;1.90;;;;;;;16.34;74.53;100483.81;7396648;19;20090;-65
2023/07/20 01:52:13;;;;;;;3.42;2.20;;;;;;;16.34;74.61;100475.88;7396514;19;20014;-66
2023/07/20 01:54:42;;;;;;;2.47;1.80;;;;;;;16.35;74.80;100480.25;7396415;19;20054;-66
2023/07/20 01:57:10;;;;;;;3.00;2.08;;;;;;;16.34;74.60;100483.81;7397009;19;20018;-65
2023/07/20 01:59:38;;;;;;;2.25;1.95;;;;;;;16.32;74.65;100489.22;7395120;19;20032;-66
2023/07/20 02:02:07;;;;;;;3.38;1.80;;;;;;;16.33;74.94;100482.09;7395505;19;20091;-65
2023/07/20 02:04:38;;;;;;;2.70;1.65;;;;;;;16.32;74.63;100475.13;7395783;19;20090;-66
2023/07/20 02:07:07;;;;;;;2.90;1.63;;;;;;;16.31;74.83;100471.59;7396038;19;20037;-66
2023/07/20 02:09:35;;;;;;;2.05;1.85;;;;;;;16.31;74.69;100476.06;7396080;19;20085;-66
2023/07/20 02:12:04;;;;;;;3.33;2.22;;;;;;;16.30;75.31;100477.81;7396485;19;20111;-66
2023/07/20 02:14:33;;;;;;;2.75;2.17;;;;;;;16.29;75.22;100484.06;7393969;19;20019;-65
2023/07/20 02:17:01;;;;;;;3.10;2.00;;;;;;;16.29;75.31;100486.72;7395310;19;20018;-66
2023/07/20 02:19:31;;;;;;;2.35;2.10;;;;;;;16.25;75.03;100485.13;7393492;19;20031;-66
2023/07/20 02:22:16;;;;;;;2.42;2.13;;;;;;;16.27;75.12;100488.56;7391985;19;20014;-66
2023/07/20 02:24:45;;;;;;;2.13;1.92;;;;;;;16.26;75.20;100494.81;7395874;19;20022;-66
2023/07/20 02:27:13;;;;;;;2.80;1.92;;;;;;;16.23;75.38;100498.47;7394958;19;20377;-66
2023/07/20 02:29:44;;;;;;;2.85;1.95;;;;;;;16.22;75.36;100502.03;7393501;19;20020;-66
2023/07/20 02:32:12;;;;;;;2.10;1.90;;;;;;;16.20;75.39;100500.41;7394895;19;20090;-66
2023/07/20 02:34:41;;;;;;;2.88;2.10;;;;;;;16.18;75.75;100503.13;7395186;19;20078;-66
2023/07/20 02:37:12;;;;;;;2.15;1.83;;;;;;;16.18;75.63;100511.06;7394246;19;20014;-66
2023/07/20 02:39:41;;;;;;;2.55;1.80;;;;;;;16.17;75.64;100506.69;7394557;19;20011;-66
2023/07/20 02:42:09;;;;;;;2.60;2.40;;;;;;;16.16;76.17;100502.31;7396443;19;20021;-66
2023/07/20 02:44:38;;;;;;;4.97;2.50;;;;;;;16.16;76.01;100509.44;7402359;19;20576;-66
2023/07/20 02:47:07;;;;;;;3.67;2.83;;;;;;;16.14;76.58;100517.44;7399401;19;20015;-65
2023/07/20 02:49:35;;;;;;;5.18;2.58;;;;;;;16.10;77.20;100511.44;7402247;19;20552;-66
2023/07/20 02:52:04;;;;;;;4.57;2.95;;;;;;;16.09;77.52;100514.16;7401517;19;20077;-66
2023/07/20 02:54:35;;;;;;;4.60;3.45;;;;;;;16.06;78.06;100519.59;7402240;19;20078;-66
2023/07/20 02:57:03;;;;;;;6.57;5.80;;;;;;;16.05;78.38;100523.16;7401656;19;20486;-66
2023/07/20 02:59:32;;;;;;;9.48;8.57;;;;;;;15.99;78.93;100513.75;7401931;19;20019;-66
2023/07/20 03:02:00;;;;;;;10.65;9.65;;;;;;;15.92;79.43;100525.53;7400772;19;20082;-66
2023/07/20 03:04:29;;;;;;;11.60;10.07;;;;;;;15.85;81.03;100532.09;7401849;19;20018;-66
2023/07/20 03:06:59;;;;;;;11.85;9.98;;;;;;;15.81;80.43;100536.63;7401143;19;20015;-66
2023/07/20 03:09:27;;;;;;;13.10;10.50;;;;;;;15.75;81.02;100537.75;7398865;19;20037;-66
2023/07/20 03:11:58;;;;;;;20.98;10.88;;;;;;;15.73;82.67;100544.91;7400736;19;20094;-65
2023/07/20 03:14:26;;;;;;;12.38;11.13;;;;;;;15.71;81.87;100546.75;7402219;19;20019;-66
2023/07/20 03:16:55;;;;;;;11.25;10.05;;;;;;;15.71;81.28;100546.75;7401468;19;20070;-66
2023/07/20 03:19:23;;;;;;;10.65;9.55;;;;;;;15.71;81.41;100554.69;7398626;19;20078;-67
2023/07/20 03:21:52;;;;;;;9.85;8.85;;;;;;;15.71;81.80;100554.69;7400214;19;20078;-66
2023/07/20 03:24:20;;;;;;;9.60;8.63;;;;;;;15.69;81.99;100548.59;7401735;19;20018;-67
2023/07/20 03:26:49;;;;;;;10.80;8.10;;;;;;;15.68;82.34;100560.09;7400943;19;20035;-67
2023/07/20 03:29:21;;;;;;;8.27;7.38;;;;;;;15.64;81.62;100562.06;7401168;19;20023;-66
2023/07/20 03:31:50;;;;;;;9.02;8.05;;;;;;;15.63;81.25;100562.13;7398008;19;20485;-66
2023/07/20 03:34:18;;;;;;;9.32;8.07;;;;;;;15.63;81.35;100559.47;7400813;19;20014;-66
2023/07/20 03:36:47;;;;;;;9.43;8.52;;;;;;;15.60;81.91;100560.47;7400247;19;20379;-66
2023/07/20 03:39:15;;;;;;;10.00;8.95;;;;;;;15.57;81.44;100567.69;7397885;19;20027;-66
2023/07/20 03:41:44;;;;;;;9.48;7.85;;;;;;;15.51;81.47;100562.69;7399197;19;20010;-66
2023/07/20 03:44:12;;;;;;;7.55;6.70;;;;;;;15.47;81.06;100565.47;7399790;19;20018;-67
2023/07/20 03:46:43;;;;;;;8.98;6.50;;;;;;;15.44;80.94;100562.97;7400165;19;20015;-66
2023/07/20 03:49:12;;;;;;;7.50;6.75;;;;;;;15.42;80.98;100564.81;7400667;19;20019;-66
2023/07/20 03:51:40;;;;;;;7.38;6.68;;;;;;;15.41;80.69;100560.44;7399807;19;20227;-66
2023/07/20 03:54:09;;;;;;;7.07;6.35;;;;;;;15.42;80.50;100556.03;7399653;19;20014;-66
2023/07/20 03:56:37;;;;;;;11.18;9.52;;;;;;;15.43;80.26;100558.59;7399675;19;20018;-66
2023/07/20 03:59:06;;;;;;;8.27;7.38;;;;;;;15.43;80.39;100558.59;7398286;19;20086;-66
2023/07/20 04:01:37;;;;;;;7.20;5.65;;;;;;;15.45;80.26;100551.44;7399311;19;20032;-65
2023/07/20 04:04:10;;;;;;;6.82;5.60;;;;;;;15.48;79.80;100556.59;7399273;19;20401;-67
2023/07/20 04:06:38;;;;;;;6.78;5.95;;;;;;;15.51;80.05;100549.47;7400158;19;20026;-69
2023/07/20 04:09:07;;;;;;;6.20;5.65;;;;;;;15.54;80.04;100557.25;7399643;19;20031;-65
2023/07/20 04:11:36;;;;;;;9.75;6.28;;;;;;;15.54;80.33;100560.75;7399589;19;20022;-65
2023/07/20 04:14:04;;;;;;;5.85;5.35;;;;;;;15.54;80.36;100566.03;7399722;19;20023;-66
2023/07/20 04:16:33;;;;;;;7.00;5.40;;;;;;;15.56;80.14;100558.91;7396921;19;20014;-66
2023/07/20 04:19:01;;;;;;;11.77;5.65;;;;;;;15.55;80.44;100553.69;7397710;19;20041;-66
2023/07/20 04:21:32;;;;;;;8.75;5.68;;;;;;;15.59;80.42;100560.53;7398501;19;20018;-67
2023/07/20 04:24:01;;;;;;;8.05;6.53;;;;;;;15.62;80.45;100563.06;7399067;19;20037;-66
2023/07/20 04:26:29;;;;;;;7.05;6.35;;;;;;;15.63;80.62;100563.00;7399086;19;20032;-66
2023/07/20 04:28:59;;;;;;;6.90;6.38;;;;;;;15.64;80.56;100566.47;7397096;19;20039;-65
2023/07/20 04:31:27;;;;;;;7.47;6.70;;;;;;;15.63;81.04;100567.41;7398715;19;20024;-65
2023/07/20 04:33:56;;;;;;;8.45;7.47;;;;;;;15.62;80.82;100563.06;7399027;19;20022;-66
2023/07/20 04:36:24;;;;;;;8.27;7.25;;;;;;;15.62;81.01;100565.72;7398961;19;20028;-66
2023/07/20 04:38:55;;;;;;;7.68;6.95;;;;;;;15.62;81.00;100568.34;7397700;19;20027;-66
2023/07/20 04:41:25;;;;;;;8.13;6.22;;;;;;;15.63;81.16;100570.91;7398836;19;20019;-67
2023/07/20 04:43:53;;;;;;;7.90;6.95;;;;;;;15.64;81.20;100572.66;7396081;19;20082;-66
2023/07/20 04:46:22;;;;;;;10.20;6.63;;;;;;;15.64;80.82;100572.66;7398417;19;20019;-66
2023/07/20 04:48:50;;;;;;;10.07;9.07;;;;;;;15.69;80.93;100568.91;7398134;19;20040;-66
2023/07/20 04:51:20;;;;;;;10.57;7.70;;;;;;;15.72;81.08;100574.94;7397763;19;20031;-66
2023/07/20 04:53:49;;;;;;;9.48;8.50;;;;;;;15.73;81.28;100563.44;7396398;19;20021;-67
2023/07/20 04:56:23;;;;;;;8.60;7.78;;;;;;;15.74;80.97;100575.69;7397545;19;20014;-67
2023/07/20 04:58:51;;;;;;;8.43;7.22;;;;;;;15.72;80.95;100567.00;7396659;19;20126;-66
2023/07/20 05:01:20;;;;;;;7.97;7.22;;;;;;;15.74;81.14;100567.75;7397539;19;20026;-64
2023/07/20 05:03:49;;;;;;;7.90;7.15;;;;;;;15.79;80.98;100563.13;7395915;19;20037;-67
2023/07/20 05:06:17;;;;;;;8.57;7.18;;;;;;;15.82;80.82;100567.44;7396011;19;20014;-66
2023/07/20 05:08:45;;;;;;;9.40;8.02;;;;;;;15.86;80.70;100565.50;7397193;19;20019;-66
2023/07/20 05:11:14;;;;;;;10.30;8.90;;;;;;;15.92;80.52;100568.75;7397230;19;20032;-66
2023/07/20 05:13:45;;;;;;;9.93;8.35;;;;;;;16.01;80.49;100577.16;7395252;19;20014;-68
2023/07/20 05:16:14;;;;;;;9.90;8.30;;;;;;;16.07;80.34;100582.19;7396789;19;20031;-65
2023/07/20 05:18:42;;;;;;;11.00;9.43;;;;;;;16.11;80.26;100567.84;7394995;19;20027;-66
2023/07/20 05:21:11;;;;;;;11.35;8.48;;;;;;;16.17;79.68;100575.50;7396341;19;20462;-67
2023/07/20 05:23:39;;;;;;;10.38;9.32;;;;;;;16.19;79.55;100567.50;7394759;19;20070;-64
2023/07/20 05:26:09;;;;;;;10.63;9.07;;;;;;;16.22;79.63;100575.31;7394925;19;20049;-65
2023/07/20 05:28:37;;;;;;;10.23;9.02;;;;;;;16.24;79.38;100576.94;7396618;19;20015;-65
2023/07/20 05:31:09;;;;;;;10.25;9.25;;;;;;;16.23;79.36;100588.44;7396640;19;20033;-66
2023/07/20 05:33:37;;;;;;;11.05;7.18;;;;;;;16.22;79.27;100588.53;7394821;19;20078;-66
2023/07/20 05:36:06;;;;;;;9.27;7.80;;;;;;;16.21;79.38;100581.50;7396175;19;20037;-65
2023/07/20 05:38:35;;;;;;;10.73;7.78;;;;;;;16.17;79.57;100586.09;7394265;19;20014;-65
2023/07/20 05:41:04;;;;;;;10.10;6.50;;;;;;;16.16;79.25;100586.19;7396457;19;20023;-66
2023/07/20 05:43:33;;;;;;;11.23;7.45;;;;;;;16.14;79.38;100588.91;7394526;19;20438;-65
2023/07/20 05:46:01;;;;;;;8.73;7.80;;;;;;;16.11;79.41;100589.91;7396615;19;20018;-67
2023/07/20 05:48:32;;;;;;;8.45;7.40;;;;;;;16.09;79.26;100585.63;7396758;19;20018;-65
2023/07/20 05:51:01;;;;;;;7.35;6.75;;;;;;;16.10;79.53;100585.53;7394167;19;20042;-66
2023/07/20 05:53:29;;;;;;;8.82;7.22;;;;;;;16.11;79.36;100595.19;7394946;19;20018;-65
2023/07/20 05:55:58;;;;;;;8.45;7.30;;;;;;;16.12;79.30;100594.28;7395540;19;20027;-65
2023/07/20 05:58:26;;;;;;;9.40;7.70;;;;;;;16.12;79.17;100598.69;7395025;19;20022;-66
2023/07/20 06:00:56;;;;;;;11.80;7.88;;;;;;;16.10;79.36;100598.78;7395196;19;20014;-66
2023/07/20 06:03:24;;;;;;;8.70;7.80;;;;;;;16.10;78.94;100592.63;7393660;19;20035;-66
2023/07/20 06:06:01;;;;;;;8.77;7.18;;;;;;;16.12;79.05;100599.56;7394901;19;20086;-66
2023/07/20 06:08:29;;;;;;;11.30;7.53;;;;;;;16.16;79.29;100605.53;7394630;19;20031;-66
2023/07/20 06:10:58;;;;;;;11.55;7.53;;;;;;;16.12;78.78;100618.09;7393670;19;20082;-66
2023/07/20 06:13:26;;;;;;;16.40;8.75;;;;;;;16.09;78.78;100609.44;7393247;19;20039;-66
2023/07/20 06:15:55;;;;;;;12.05;8.23;;;;;;;16.03;78.91;100602.63;7393342;19;20362;-69
2023/07/20 06:18:25;;;;;;;8.43;7.63;;;;;;;16.05;78.84;100607.84;7393208;19;20018;-66
2023/07/20 06:20:56;;;;;;;9.40;7.05;;;;;;;16.08;79.05;100613.00;7395345;19;20027;-66
2023/07/20 06:23:25;;;;;;;7.05;6.32;;;;;;;16.12;78.56;100609.28;7392916;19;20031;-66
2023/07/20 06:25:53;;;;;;;6.00;5.30;;;;;;;16.19;77.78;100612.47;7394786;19;20018;-68
2023/07/20 06:28:22;;;;;;;8.90;5.18;;;;;;;16.26;77.51;100611.28;7393125;19;20035;-66
2023/07/20 06:30:51;;;;;;;7.90;5.25;;;;;;;16.36;76.97;100607.25;7394140;19;20461;-66
2023/07/20 06:33:20;;;;;;;6.38;4.30;;;;;;;16.46;76.44;100623.56;7393100;19;20082;-67
2023/07/20 06:35:48;;;;;;;7.82;5.35;;;;;;;16.50;75.44;100622.47;7394593;19;20019;-67
2023/07/20 06:38:19;;;;;;;5.85;5.32;;;;;;;16.49;75.12;100623.41;7394485;19;20018;-67
2023/07/20 06:40:49;;;;;;;5.13;4.63;;;;;;;16.43;75.09;100618.41;7392858;19;20074;-67
2023/07/20 06:43:17;;;;;;;4.32;3.83;;;;;;;16.42;75.27;100622.84;7393061;19;20018;-68
2023/07/20 06:45:52;;;;;;;4.88;3.72;;;;;;;16.40;75.08;100619.44;7394376;19;20015;-67
2023/07/20 06:48:21;;;;;;;6.22;4.03;;;;;;;16.38;75.04;100618.63;7393363;19;20035;-65
2023/07/20 06:50:49;;;;;;;5.13;3.58;;;;;;;16.39;74.87;100615.06;7392318;19;20428;-66
2023/07/20 06:53:20;;;;;;;6.65;3.78;;;;;;;16.43;74.84;100610.47;7392577;19;20528;-66
2023/07/20 06:55:49;;;;;;;5.10;3.80;;;;;;;16.54;74.46;100615.22;7392693;19;20477;-70
2023/07/20 06:58:18;;;;;;;3.78;3.40;;;;;;;16.63;74.19;100616.56;7394341;19;20078;-66
2023/07/20 07:00:47;;;;;;;3.67;3.35;;;;;;;16.66;73.18;100621.75;7392657;19;20014;-67
2023/07/20 07:03:15;;;;;;;3.53;2.80;;;;;;;16.67;72.71;100619.00;7392805;19;20032;-66
2023/07/20 07:05:44;;;;;;;4.10;2.95;;;;;;;16.69;72.78;100629.53;7393971;19;20015;-66
2023/07/20 07:08:13;;;;;;;4.97;3.05;;;;;;;16.67;72.13;100620.78;7393550;19;20019;-67
2023/07/20 07:10:44;;;;;;;5.25;2.83;;;;;;;16.69;72.04;100618.94;7393891;19;20082;-67
2023/07/20 07:13:12;;;;;;;3.30;2.90;;;;;;;16.72;71.81;100622.28;7392361;19;20019;-67
2023/07/20 07:15:41;;;;;;;3.33;2.97;;;;;;;16.76;71.75;100620.34;7393106;19;20414;-66
2023/07/20 07:18:09;;;;;;;2.63;2.30;;;;;;;16.78;71.50;100621.97;7393420;19;20018;-64
2023/07/20 07:20:38;;;;;;;4.22;2.42;;;;;;;16.84;71.09;100622.59;7391664;19;20024;-65
2023/07/20 07:23:06;;;;;;;3.30;2.00;;;;;;;16.90;70.86;100619.66;7391194;19;20027;-65
2023/07/20 07:25:35;;;;;;;2.60;1.88;;;;;;;16.99;70.26;100615.72;7393153;19;20039;-65
2023/07/20 07:28:06;;;;;;;3.13;2.10;;;;;;;17.08;70.05;100620.53;7392994;19;20335;-65
2023/07/20 07:30:35;;;;;;;3.67;2.40;;;;;;;17.14;69.18;100635.28;7398499;19;20031;-65
2023/07/20 07:33:03;;;;;;;3.97;2.60;;;;;;;17.09;69.36;100635.50;7398542;19;20481;-65
2023/07/20 07:35:32;;;;;;;2.17;1.95;;;;;;;17.08;69.43;100637.28;7400346;19;20041;-65
2023/07/20 07:38:01;;;;;;;2.53;1.95;;;;;;;17.07;68.89;100646.19;7400046;19;20365;-64
2023/07/20 07:40:29;;;;;;;4.28;2.35;;;;;;;17.07;69.00;100650.63;7397693;19;20014;-66
2023/07/20 07:42:58;;;;;;;3.17;2.10;;;;;;;17.10;69.03;100650.50;7398011;19;20034;-66
2023/07/20 07:45:29;;;;;;;3.53;2.45;;;;;;;17.12;68.64;100653.91;7397140;19;20022;-65
2023/07/20 07:47:57;;;;;;;3.80;2.30;;;;;;;17.16;69.08;100654.59;7397913;19;20014;-66
2023/07/20 07:50:32;;;;;;;2.30;1.90;;;;;;;17.16;67.95;100644.88;7399669;19;20027;-65
2023/07/20 07:53:00;;;;;;;3.13;2.05;;;;;;;17.21;68.26;100652.56;7398149;19;20082;-65
2023/07/20 07:55:29;;;;;;;2.30;1.35;;;;;;;17.28;67.92;100645.19;7399465;19;20019;-65
2023/07/20 07:57:57;;;;;;;1.55;1.30;;;;;;;17.35;67.36;100647.44;7399786;19;20014;-64
2023/07/20 08:00:29;;;;;;;3.22;1.67;;;;;;;17.41;67.24;100648.91;7397307;19;20545;-65
2023/07/20 08:02:57;;;;;;;3.28;1.08;;;;;;;17.44;66.42;100654.06;7396588;19;20480;-65
2023/07/20 08:05:26;;;;;;;1.85;1.20;;;;;;;17.43;66.62;100639.94;7396758;19;20011;-65
2023/07/20 08:07:54;;;;;;;2.42;1.40;;;;;;;17.45;66.35;100644.31;7397144;19;20367;-67
2023/07/20 08:10:25;;;;;;;1.98;1.00;;;;;;;17.46;65.71;100646.88;7399037;19;20505;-65
2023/07/20 08:12:53;;;;;;;1.65;1.00;;;;;;;17.49;65.41;100652.03;7397065;19;20026;-66
2023/07/20 08:15:22;;;;;;;2.15;0.90;;;;;;;17.56;64.48;100663.16;7396451;19;20007;-65
2023/07/20 08:17:54;;;;;;;1.67;0.93;;;;;;;17.62;63.33;100651.38;7399606;19;20014;-65
2023/07/20 08:20:26;;;;;;;1.42;0.82;;;;;;;17.69;63.61;100652.75;7397153;19;20018;-66
2023/07/20 08:22:54;;;;;;;2.08;0.82;;;;;;;17.83;63.48;100654.66;7397086;19;20006;-65
2023/07/20 08:25:23;;;;;;;0.80;0.80;;;;;;;17.92;62.72;100652.38;7398925;19;20018;-66
2023/07/20 08:27:51;;;;;;;1.52;0.75;;;;;;;17.96;61.69;100644.28;7396619;19;20026;-65
2023/07/20 08:30:20;;;;;;;2.35;1.27;;;;;;;17.99;60.77;100658.25;7398515;19;20028;-65
2023/07/20 08:32:49;;;;;;;1.45;1.00;;;;;;;18.00;60.50;100667.09;7396833;19;20514;-67
2023/07/20 08:35:20;;;;;;;1.75;1.10;;;;;;;18.00;60.65;100657.31;7398301;19;20014;-64
2023/07/20 08:37:49;;;;;;;1.23;0.90;;;;;;;18.04;60.93;100664.16;7398677;19;20045;-65
2023/07/20 08:40:17;;;;;;;1.60;0.95;;;;;;;18.09;60.84;100661.25;7394137;19;20489;-65
2023/07/20 08:42:47;;;;;;;3.22;1.00;;;;;;;18.17;61.09;100663.50;7395427;19;20018;-65
2023/07/20 08:45:19;;;;;;;2.92;0.90;;;;;;;18.27;60.81;100670.00;7397891;19;20070;-65
2023/07/20 08:47:50;;;;;;;1.98;1.20;;;;;;;18.36;60.82;100668.63;7398406;19;20383;-67
2023/07/20 08:50:22;;;;;;;1.67;1.20;;;;;;;18.41;60.27;100666.59;7397782;19;20481;-65
2023/07/20 08:52:53;;;;;;;2.35;1.45;;;;;;;18.48;60.26;100667.13;7396150;19;20014;-65
2023/07/20 08:55:23;;;;;;;4.60;1.65;;;;;;;18.55;60.47;100668.47;7398626;19;20023;-64
2023/07/20 08:57:55;;;;;;;1.75;1.35;;;;;;;18.63;60.17;100673.38;7397739;19;20037;-64
2023/07/20 09:00:25;;;;;;;1.60;1.10;;;;;;;18.65;59.54;100674.13;7396038;19;20018;-66
2023/07/20 09:02:55;;;;;;;2.45;1.42;;;;;;;18.63;58.70;100668.06;7395952;19;20018;-64
2023/07/20 09:05:27;;;;;;;1.50;1.08;;;;;;;18.61;59.04;100656.66;7395904;19;20011;-64
2023/07/20 09:07:55;;;;;;;1.13;1.00;;;;;;;18.67;59.26;100657.16;7396617;19;20022;-67
2023/07/20 09:10:24;;;;;;;1.58;1.02;;;;;;;18.82;58.71;100658.06;7397268;19;20035;-65
2023/07/20 09:12:53;;;;;;;1.83;1.05;;;;;;;18.93;57.79;100656.63;7395279;19;20014;-64
2023/07/20 09:15:23;;;;;;;1.30;1.20;;;;;;;19.00;57.53;100664.13;7396798;19;20082;-66
2023/07/20 09:17:53;;;;;;;2.05;1.05;;;;;;;19.11;57.26;100666.19;7394762;19;20035;-66
2023/07/20 09:20:23;;;;;;;1.65;1.27;;;;;;;19.20;56.70;100668.28;7396122;19;20354;-64
2023/07/20 09:22:55;;;;;;;1.70;1.30;;;;;;;19.26;56.48;100664.44;7394597;19;20368;-64
2023/07/20 09:25:23;;;;;;;2.97;1.70;;;;;;;19.34;56.11;100659.50;7396647;19;20025;-66
2023/07/20 09:27:54;;;;;;;1.27;1.10;;;;;;;19.42;56.05;100652.84;7397517;19;20035;-66
2023/07/20 09:30:28;;;;;;;1.20;1.10;;;;;;;19.49;56.09;100662.19;7398716;19;20022;-68
2023/07/20 09:32:56;;;;;;;1.63;1.52;;;;;;;19.56;55.84;100663.50;7396643;19;20019;-68
2023/07/20 09:38:38;;;;;;;2.40;1.40;;;;;;;19.60;55.34;100670.38;7396769;19;19979;-65
2023/07/20 09:41:08;;;;;;;2.20;1.15;;;;;;;19.64;55.53;100642.63;7394806;19;20014;-65
2023/07/20 09:43:37;;;;;;;3.13;1.40;;;;;;;19.70;54.49;100647.56;7394306;19;20031;-65
2023/07/20 09:46:05;;;;;;;1.27;0.80;;;;;;;19.77;53.28;100655.19;7395166;19;20035;-65
2023/07/20 09:48:34;;;;;;;2.03;1.30;;;;;;;19.85;53.45;100660.91;7396504;19;20031;-65
2023/07/20 09:51:04;;;;;;;1.05;0.95;;;;;;;19.92;53.75;100662.22;7395885;19;20395;-65
2023/07/20 09:53:34;;;;;;;1.70;1.60;;;;;;;20.02;52.44;100652.72;7394711;19;20011;-64
2023/07/20 09:56:06;;;;;;;2.80;1.17;;;;;;;20.11;52.49;100650.44;7393934;19;20014;-65
2023/07/20 09:58:36;;;;;;;1.65;0.98;;;;;;;20.14;51.60;100656.44;7396142;19;20035;-65
2023/07/20 10:01:09;;;;;;;1.08;1.05;;;;;;;20.08;52.04;100647.94;7394177;19;20021;-68
2023/07/20 10:03:41;;;;;;;0.70;0.70;;;;;;;20.08;51.92;100642.63;7393746;19;20078;-65
2023/07/20 10:06:13;;;;;;;0.82;0.82;;;;;;;20.12;52.24;100641.47;7395506;19;20018;-65
2023/07/20 10:08:43;;;;;;;0.90;0.80;;;;;;;20.14;51.97;100650.22;7394034;19;20014;-66
2023/07/20 10:11:18;;;;;;;2.22;0.90;;;;;;;20.17;52.07;100639.41;7395849;19;20552;-65
2023/07/20 10:13:47;;;;;;;1.00;0.90;;;;;;;20.24;52.54;100648.69;7393814;19;20023;-65
2023/07/20 10:16:24;;;;;;;1.05;0.95;;;;;;;20.26;51.02;100649.44;7394809;19;20010;-68
2023/07/20 10:18:58;;;;;;;0.88;0.80;;;;;;;20.27;51.08;100637.84;7393355;19;20078;-65
2023/07/20 10:21:28;;;;;;;0.68;0.45;;;;;;;20.26;50.25;100652.13;7393311;19;20018;-66
2023/07/20 10:23:58;;;;;;;4.22;1.40;;;;;;;20.30;50.78;100639.47;7393322;19;20502;-65
2023/07/20 10:26:29;;;;;;;0.70;0.60;;;;;;;20.39;50.65;100641.50;7392867;19;20014;-65
2023/07/20 10:28:59;;;;;;;1.58;0.70;;;;;;;20.48;50.83;100648.91;7394624;19;20031;-65
2023/07/20 10:31:29;;;;;;;0.60;0.60;;;;;;;20.52;50.66;100641.56;7394023;19;20035;-65
2023/07/20 10:33:59;;;;;;;1.50;0.50;;;;;;;20.58;50.43;100651.00;7392769;19;20018;-64
2023/07/20 10:36:29;;;;;;;1.27;0.60;;;;;;;20.59;49.96;100645.56;7394277;19;20039;-65
2023/07/20 10:38:58;;;;;;;1.80;0.70;;;;;;;20.66;50.58;100651.31;7393838;19;20014;-67
2023/07/20 10:41:37;;;;;;;2.20;0.57;;;;;;;20.80;49.87;100637.13;7392699;19;20022;-66
2023/07/20 10:44:07;;;;;;;0.80;0.55;;;;;;;20.89;49.64;100640.97;7394935;19;20014;-65
2023/07/20 10:46:47;;;;;;;0.55;0.35;;;;;;;20.86;48.52;100650.03;7394656;19;20039;-66
2023/07/20 10:49:17;;;;;;;1.17;0.50;;;;;;;20.87;49.38;100643.75;7392612;19;20018;-66
2023/07/20 10:51:47;;;;;;;0.70;0.45;;;;;;;20.91;49.45;100642.59;7392179;19;20015;-65
2023/07/20 10:54:52;;;;;;;2.75;0.68;;;;;;;20.93;48.55;100646.00;7394727;19;20018;-66
2023/07/20 10:57:41;;;;;;;;;;;;;;;21.05;49.16;100641.66;7390893;19;20377;-66
2023/07/20 11:00:14;;;;;;;1.90;0.60;;;;;;;21.10;47.67;100639.53;7392871;19;20351;-66
2023/07/20 11:02:50;;;;;;;2.08;0.60;;;;;;;21.11;47.60;100651.91;7393527;19;20022;-66
2023/07/20 11:05:40;;;;;;;1.30;0.60;;;;;;;21.10;47.54;100652.03;7401195;19;20031;-66
2023/07/20 11:08:12;;;;;;;1.50;0.50;;;;;;;21.02;48.82;100646.38;7401353;19;20019;-66
2023/07/20 11:10:41;;;;;;;0.60;0.45;;;;;;;20.96;48.84;100661.78;7401059;19;20026;-66
2023/07/20 11:13:17;;;;;;;0.60;0.45;;;;;;;20.91;48.68;100653.25;7398454;19;20018;-67
2023/07/20 11:16:06;;;;;;;0.73;0.43;;;;;;;20.92;48.51;100665.63;7399980;19;20495;-66
2023/07/20 11:18:41;;;;;;;1.67;0.65;;;;;;;20.93;48.67;100663.84;7400807;19;20023;-66
2023/07/20 11:21:13;;;;;;;3.05;0.52;;;;;;;20.94;49.06;100665.53;7398124;19;20025;-66
2023/07/20 11:23:42;;;;;;;1.10;0.57;;;;;;;20.94;49.08;100662.84;7396947;19;20027;-66
2023/07/20 11:26:12;;;;;;;2.97;0.60;;;;;;;20.90;48.94;100658.69;7401058;19;20513;-66
2023/07/20 11:28:40;;;;;;;0.60;0.60;;;;;;;20.86;49.18;100663.38;7400079;19;20011;-65
2023/07/20 11:31:11;;;;;;;2.38;1.55;;;;;;;20.84;48.79;100659.97;7400961;19;20014;-65
2023/07/20 11:33:40;;;;;;;0.50;0.50;;;;;;;20.84;48.78;100659.97;7397779;19;20031;-65
2023/07/20 11:36:10;;;;;;;1.73;0.28;;;;;;;20.89;48.96;100662.31;7397604;19;20433;-65
2023/07/20 11:38:39;;;;;;;1.00;0.30;;;;;;;20.94;48.94;100653.06;7397646;19;20014;-64
2023/07/20 11:41:07;;;;;;;0.60;0.30;;;;;;;20.99;48.53;100650.94;7399371;19;20018;-65